DLH8VU EDDF-EICK
Flight info
| Callsign | DLH8VU |
|---|---|
| Flight time | N/A |
| Altitude | 38000 |
| Route | OBOKA2E/07C OBOKA Z29 TORNU DCT GALSO Q63 ERING L179 UGBET Q60 OKSAW DCT FELCA DCT FADZU DCT BANBA DCT VAPAL VAPAL1R |
| Aircraft | A319/M-SDE3FGHIRWY/LB1 |
Departure
| Time | 2026-04-15 10:00 |
|---|---|
| Airport | Frankfurt Main Airport (EDDF) |
Arrival
| Time | N/A |
|---|---|
| Airport | Cork International Airport (EICK) |
| Time | Latitude | Longitude | Altitude | Speed | Heading |
|---|---|---|---|---|---|
| 2026-04-15 09:35 | 50.04657 | 8.57064 | 354 ft | 0 kts | 91° |
| 2026-04-15 09:50 | 50.04657 | 8.57053 | 345 ft | 2 kts | 91° |
| 2026-04-15 09:51 | 50.04658 | 8.57027 | 357 ft | 2 kts | 93° |
| 2026-04-15 09:51 | 50.04659 | 8.57001 | 355 ft | 2 kts | 96° |
| 2026-04-15 09:51 | 50.04661 | 8.56976 | 352 ft | 2 kts | 106° |
| 2026-04-15 09:51 | 50.04669 | 8.56952 | 352 ft | 2 kts | 175° |
| 2026-04-15 09:52 | 50.04678 | 8.56956 | 356 ft | 0 kts | 199° |
| 2026-04-15 09:53 | 50.04667 | 8.56947 | 352 ft | 4 kts | 206° |
| 2026-04-15 09:54 | 50.04633 | 8.56925 | 350 ft | 6 kts | 199° |
| 2026-04-15 09:54 | 50.04591 | 8.56907 | 346 ft | 6 kts | 195° |
| 2026-04-15 09:54 | 50.04546 | 8.56889 | 349 ft | 7 kts | 193° |
| 2026-04-15 09:54 | 50.04485 | 8.56868 | 346 ft | 10 kts | 192° |
| 2026-04-15 09:55 | 50.04416 | 8.56848 | 346 ft | 10 kts | 189° |
| 2026-04-15 09:55 | 50.04342 | 8.56829 | 347 ft | 11 kts | 192° |
| 2026-04-15 09:55 | 50.04268 | 8.56801 | 346 ft | 11 kts | 202° |
| 2026-04-15 09:55 | 50.04231 | 8.56703 | 347 ft | 11 kts | 252° |
| 2026-04-15 09:56 | 50.04203 | 8.56586 | 346 ft | 13 kts | 249° |
| 2026-04-15 09:56 | 50.04169 | 8.56447 | 346 ft | 15 kts | 250° |
| 2026-04-15 09:56 | 50.04090 | 8.56115 | 353 ft | 18 kts | 249° |
| 2026-04-15 09:57 | 50.04044 | 8.55922 | 348 ft | 19 kts | 250° |
| 2026-04-15 09:57 | 50.03996 | 8.55723 | 346 ft | 20 kts | 249° |
| 2026-04-15 09:57 | 50.03948 | 8.55521 | 351 ft | 20 kts | 250° |
| 2026-04-15 09:57 | 50.03899 | 8.55318 | 348 ft | 20 kts | 249° |
| 2026-04-15 09:58 | 50.03850 | 8.55111 | 351 ft | 21 kts | 250° |
| 2026-04-15 09:58 | 50.03800 | 8.54904 | 348 ft | 20 kts | 250° |
| 2026-04-15 09:58 | 50.03758 | 8.54744 | 349 ft | 14 kts | 236° |
| 2026-04-15 09:58 | 50.03681 | 8.54718 | 349 ft | 12 kts | 154° |
| 2026-04-15 09:59 | 50.03607 | 8.54757 | 352 ft | 10 kts | 158° |
| 2026-04-15 09:59 | 50.03590 | 8.54833 | 346 ft | 9 kts | 64° |
| 2026-04-15 09:59 | 50.03614 | 8.54927 | 351 ft | 11 kts | 68° |
| 2026-04-15 09:59 | 50.03702 | 8.55304 | 350 ft | 74 kts | 70° |
| 2026-04-15 10:00 | 50.03962 | 8.56387 | 349 ft | 138 kts | 70° |
| 2026-04-15 10:00 | 50.04347 | 8.57976 | 613 ft | 164 kts | 70° |
| 2026-04-15 10:00 | 50.04737 | 8.59637 | 1375 ft | 163 kts | 70° |
| 2026-04-15 10:00 | 50.05138 | 8.61339 | 1995 ft | 176 kts | 70° |
| 2026-04-15 10:01 | 50.05870 | 8.62996 | 2362 ft | 202 kts | 38° |
| 2026-04-15 10:01 | 50.07250 | 8.63619 | 2885 ft | 218 kts | 1° |
| 2026-04-15 10:01 | 50.08786 | 8.63514 | 3840 ft | 220 kts | 359° |
| 2026-04-15 10:01 | 50.10327 | 8.63404 | 4903 ft | 224 kts | 359° |
| 2026-04-15 10:02 | 50.11969 | 8.63286 | 5491 ft | 248 kts | 359° |
| 2026-04-15 10:02 | 50.13775 | 8.63160 | 6099 ft | 269 kts | 358° |
| 2026-04-15 10:02 | 50.15671 | 8.63031 | 6953 ft | 277 kts | 357° |
| 2026-04-15 10:02 | 50.17615 | 8.62900 | 7830 ft | 282 kts | 357° |
| 2026-04-15 10:03 | 50.19590 | 8.62766 | 8815 ft | 286 kts | 357° |
| 2026-04-15 10:03 | 50.21593 | 8.62631 | 9783 ft | 290 kts | 357° |
| 2026-04-15 10:03 | 50.23605 | 8.62495 | 10580 ft | 299 kts | 356° |
| 2026-04-15 10:03 | 50.25766 | 8.62346 | 10919 ft | 322 kts | 356° |
| 2026-04-15 10:04 | 50.28040 | 8.62175 | 11550 ft | 332 kts | 354° |
| 2026-04-15 10:04 | 50.30285 | 8.61316 | 12310 ft | 335 kts | 335° |
| 2026-04-15 10:04 | 50.32241 | 8.59368 | 13141 ft | 336 kts | 316° |
| 2026-04-15 10:04 | 50.33712 | 8.56526 | 13977 ft | 337 kts | 298° |
| 2026-04-15 10:05 | 50.34595 | 8.53132 | 14721 ft | 338 kts | 288° |
| 2026-04-15 10:05 | 50.35353 | 8.49633 | 15430 ft | 342 kts | 288° |
| 2026-04-15 10:05 | 50.36117 | 8.46085 | 16105 ft | 346 kts | 288° |
| 2026-04-15 10:05 | 50.36890 | 8.42492 | 16796 ft | 350 kts | 288° |
| 2026-04-15 10:06 | 50.37672 | 8.38862 | 17467 ft | 354 kts | 288° |
| 2026-04-15 10:06 | 50.38632 | 8.35288 | 18131 ft | 358 kts | 298° |
| 2026-04-15 10:06 | 50.39866 | 8.31877 | 18769 ft | 362 kts | 300° |
| 2026-04-15 10:06 | 50.41117 | 8.28424 | 19363 ft | 365 kts | 299° |
| 2026-04-15 10:07 | 50.42372 | 8.24939 | 19964 ft | 369 kts | 299° |
| 2026-04-15 10:07 | 50.43634 | 8.21418 | 20571 ft | 372 kts | 299° |
| 2026-04-15 10:07 | 50.44902 | 8.17866 | 21175 ft | 375 kts | 299° |
| 2026-04-15 10:07 | 50.46179 | 8.14276 | 21759 ft | 378 kts | 299° |
| 2026-04-15 10:08 | 50.47464 | 8.10663 | 22356 ft | 381 kts | 299° |
| 2026-04-15 10:08 | 50.48764 | 8.07015 | 22940 ft | 384 kts | 299° |
| 2026-04-15 10:08 | 50.50074 | 8.03340 | 23515 ft | 388 kts | 299° |
| 2026-04-15 10:08 | 50.51397 | 7.99623 | 24054 ft | 391 kts | 299° |
| 2026-04-15 10:09 | 50.52723 | 7.95893 | 24530 ft | 393 kts | 299° |
| 2026-04-15 10:09 | 50.54059 | 7.92133 | 25035 ft | 394 kts | 299° |
| 2026-04-15 10:09 | 50.55398 | 7.88359 | 25529 ft | 396 kts | 300° |
| 2026-04-15 10:09 | 50.56740 | 7.84565 | 26019 ft | 397 kts | 300° |
| 2026-04-15 10:10 | 50.58082 | 7.80758 | 26489 ft | 399 kts | 300° |
| 2026-04-15 10:10 | 50.59427 | 7.76936 | 26958 ft | 401 kts | 300° |
| 2026-04-15 10:10 | 50.60780 | 7.73086 | 27413 ft | 402 kts | 300° |
| 2026-04-15 10:10 | 50.62139 | 7.69222 | 27864 ft | 404 kts | 300° |
| 2026-04-15 10:11 | 50.63503 | 7.65341 | 28297 ft | 406 kts | 300° |
| 2026-04-15 10:11 | 50.64873 | 7.61433 | 28755 ft | 408 kts | 300° |
| 2026-04-15 10:11 | 50.65654 | 7.59202 | 29007 ft | 410 kts | 300° |
| 2026-04-15 10:11 | 50.67115 | 7.55020 | 29454 ft | 412 kts | 300° |
| 2026-04-15 10:12 | 50.68497 | 7.51059 | 29874 ft | 414 kts | 300° |
| 2026-04-15 10:12 | 50.69887 | 7.47070 | 30292 ft | 416 kts | 300° |
| 2026-04-15 10:12 | 50.71279 | 7.43070 | 30630 ft | 418 kts | 300° |
| 2026-04-15 10:12 | 50.72681 | 7.39029 | 30969 ft | 420 kts | 300° |
| 2026-04-15 10:13 | 50.74062 | 7.35039 | 31298 ft | 421 kts | 300° |
| 2026-04-15 10:13 | 50.75460 | 7.30961 | 31640 ft | 423 kts | 299° |
| 2026-04-15 10:13 | 50.76822 | 7.26852 | 31979 ft | 424 kts | 298° |
| 2026-04-15 10:13 | 50.78167 | 7.22706 | 32444 ft | 422 kts | 298° |
| 2026-04-15 10:14 | 50.79491 | 7.18579 | 32913 ft | 420 kts | 298° |
| 2026-04-15 10:14 | 50.80810 | 7.14463 | 33379 ft | 418 kts | 298° |
| 2026-04-15 10:14 | 50.82124 | 7.10374 | 33844 ft | 417 kts | 298° |
| 2026-04-15 10:14 | 50.83442 | 7.06293 | 34297 ft | 415 kts | 298° |
| 2026-04-15 10:15 | 50.84753 | 7.02241 | 34675 ft | 414 kts | 298° |
| 2026-04-15 10:15 | 50.86065 | 6.98186 | 35038 ft | 413 kts | 298° |
| 2026-04-15 10:15 | 50.87370 | 6.94150 | 35366 ft | 412 kts | 298° |
| 2026-04-15 10:15 | 50.88674 | 6.90108 | 35695 ft | 412 kts | 298° |
| 2026-04-15 10:16 | 50.89973 | 6.86067 | 36009 ft | 411 kts | 298° |
| 2026-04-15 10:16 | 50.91266 | 6.82039 | 36322 ft | 411 kts | 298° |
| 2026-04-15 10:16 | 50.92558 | 6.78005 | 36634 ft | 410 kts | 298° |
| 2026-04-15 10:16 | 50.93845 | 6.73972 | 36930 ft | 409 kts | 298° |
| 2026-04-15 10:17 | 50.95125 | 6.69947 | 37213 ft | 409 kts | 298° |
| 2026-04-15 10:17 | 50.96409 | 6.65917 | 37507 ft | 408 kts | 298° |
| 2026-04-15 10:17 | 50.97687 | 6.61902 | 37788 ft | 408 kts | 298° |
| 2026-04-15 10:17 | 50.98965 | 6.57886 | 38066 ft | 407 kts | 298° |
| 2026-04-15 10:18 | 51.00241 | 6.53869 | 38214 ft | 407 kts | 298° |
| 2026-04-15 10:18 | 51.02776 | 6.45850 | 38233 ft | 405 kts | 298° |
| 2026-04-15 10:19 | 51.05300 | 6.37855 | 38234 ft | 405 kts | 298° |
| 2026-04-15 10:19 | 51.07807 | 6.29891 | 38237 ft | 405 kts | 297° |
| 2026-04-15 10:20 | 51.10320 | 6.21865 | 38221 ft | 405 kts | 297° |
| 2026-04-15 10:20 | 51.12818 | 6.13835 | 38226 ft | 405 kts | 297° |
| 2026-04-15 10:21 | 51.14759 | 6.05421 | 38225 ft | 407 kts | 286° |
| 2026-04-15 10:21 | 51.16175 | 5.96691 | 38224 ft | 407 kts | 286° |
| 2026-04-15 10:22 | 51.17591 | 5.87958 | 38215 ft | 407 kts | 286° |
| 2026-04-15 10:22 | 51.19083 | 5.79262 | 38215 ft | 407 kts | 289° |
| 2026-04-15 10:23 | 51.20956 | 5.70764 | 38208 ft | 406 kts | 291° |
| 2026-04-15 10:23 | 51.22930 | 5.62326 | 38213 ft | 406 kts | 291° |
| 2026-04-15 10:24 | 51.24825 | 5.53837 | 38213 ft | 407 kts | 290° |
| 2026-04-15 10:24 | 51.26662 | 5.45287 | 38223 ft | 407 kts | 290° |
| 2026-04-15 10:25 | 51.28491 | 5.36745 | 38224 ft | 407 kts | 290° |
| 2026-04-15 10:25 | 51.30329 | 5.28196 | 38231 ft | 407 kts | 290° |
| 2026-04-15 10:26 | 51.32160 | 5.19651 | 38221 ft | 407 kts | 290° |
| 2026-04-15 10:26 | 51.33987 | 5.11094 | 38226 ft | 406 kts | 290° |
| 2026-04-15 10:27 | 51.35790 | 5.02594 | 38205 ft | 406 kts | 289° |
| 2026-04-15 10:27 | 51.37589 | 4.94029 | 38209 ft | 406 kts | 289° |
| 2026-04-15 10:28 | 51.39390 | 4.85474 | 38203 ft | 405 kts | 289° |
| 2026-04-15 10:28 | 51.41192 | 4.76920 | 38206 ft | 405 kts | 289° |
| 2026-04-15 10:29 | 51.42983 | 4.68370 | 38203 ft | 405 kts | 289° |
| 2026-04-15 10:29 | 51.44766 | 4.59799 | 38207 ft | 405 kts | 289° |
| 2026-04-15 10:30 | 51.46531 | 4.51225 | 38205 ft | 405 kts | 289° |
| 2026-04-15 10:30 | 51.48301 | 4.42648 | 38211 ft | 405 kts | 289° |
| 2026-04-15 10:31 | 51.50066 | 4.34071 | 38206 ft | 405 kts | 289° |
| 2026-04-15 10:31 | 51.51824 | 4.25491 | 38212 ft | 404 kts | 288° |
| 2026-04-15 10:32 | 51.53269 | 4.18349 | 38203 ft | 404 kts | 288° |
| 2026-04-15 10:32 | 51.55002 | 4.09754 | 38203 ft | 405 kts | 288° |
| 2026-04-15 10:33 | 51.56744 | 4.01151 | 38188 ft | 405 kts | 288° |
| 2026-04-15 10:33 | 51.58475 | 3.92539 | 38183 ft | 405 kts | 288° |
| 2026-04-15 10:34 | 51.60200 | 3.83921 | 38174 ft | 405 kts | 288° |
| 2026-04-15 10:34 | 51.61918 | 3.75283 | 38169 ft | 405 kts | 288° |
| 2026-04-15 10:35 | 51.63623 | 3.66629 | 38173 ft | 406 kts | 288° |
| 2026-04-15 10:35 | 51.65333 | 3.57968 | 38168 ft | 406 kts | 288° |
| 2026-04-15 10:36 | 51.67043 | 3.49311 | 38164 ft | 406 kts | 288° |
| 2026-04-15 10:36 | 51.68742 | 3.40651 | 38165 ft | 406 kts | 288° |
| 2026-04-15 10:37 | 51.70425 | 3.31972 | 38157 ft | 405 kts | 288° |
| 2026-04-15 10:37 | 51.72099 | 3.23284 | 38166 ft | 405 kts | 288° |
| 2026-04-15 10:38 | 51.72943 | 3.14388 | 38159 ft | 407 kts | 269° |
| 2026-04-15 10:38 | 51.72247 | 3.05235 | 38161 ft | 409 kts | 264° |
| 2026-04-15 10:39 | 51.71461 | 2.96221 | 38153 ft | 409 kts | 264° |
| 2026-04-15 10:39 | 51.70673 | 2.87078 | 38151 ft | 409 kts | 264° |
| 2026-04-15 10:40 | 51.69884 | 2.78053 | 38147 ft | 409 kts | 264° |
| 2026-04-15 10:40 | 51.69072 | 2.68977 | 38149 ft | 409 kts | 264° |
| 2026-04-15 10:41 | 51.68252 | 2.59897 | 38140 ft | 409 kts | 264° |
| 2026-04-15 10:41 | 51.67432 | 2.50840 | 38143 ft | 409 kts | 264° |
| 2026-04-15 10:42 | 51.66614 | 2.41769 | 38132 ft | 409 kts | 264° |
| 2026-04-15 10:42 | 51.65784 | 2.32704 | 38132 ft | 409 kts | 264° |
| 2026-04-15 10:43 | 51.64944 | 2.23666 | 38126 ft | 409 kts | 264° |
| 2026-04-15 10:43 | 51.64089 | 2.14611 | 38125 ft | 409 kts | 264° |
| 2026-04-15 10:44 | 51.63242 | 2.05568 | 38122 ft | 408 kts | 264° |
| 2026-04-15 10:44 | 51.62404 | 1.96528 | 38129 ft | 408 kts | 264° |
| 2026-04-15 10:45 | 51.61561 | 1.87494 | 38126 ft | 408 kts | 264° |
| 2026-04-15 10:45 | 51.60714 | 1.78467 | 38133 ft | 408 kts | 264° |
| 2026-04-15 10:46 | 51.59857 | 1.69454 | 38128 ft | 408 kts | 264° |
| 2026-04-15 10:46 | 51.59157 | 1.60492 | 38124 ft | 404 kts | 272° |
| 2026-04-15 10:47 | 51.59505 | 1.51531 | 38126 ft | 401 kts | 276° |
| 2026-04-15 10:47 | 51.59890 | 1.42521 | 38123 ft | 401 kts | 276° |
| 2026-04-15 10:48 | 51.60254 | 1.33632 | 38117 ft | 401 kts | 276° |
| 2026-04-15 10:48 | 51.60624 | 1.24699 | 38113 ft | 400 kts | 276° |
| 2026-04-15 10:49 | 51.60994 | 1.15768 | 38110 ft | 400 kts | 276° |
| 2026-04-15 10:49 | 51.61349 | 1.06838 | 38110 ft | 400 kts | 276° |
| 2026-04-15 10:50 | 51.61691 | 0.97916 | 38111 ft | 399 kts | 276° |
| 2026-04-15 10:50 | 51.62027 | 0.89019 | 38110 ft | 398 kts | 276° |
| 2026-04-15 10:51 | 51.62366 | 0.80155 | 38108 ft | 396 kts | 276° |
| 2026-04-15 10:51 | 51.62690 | 0.71341 | 38110 ft | 395 kts | 276° |
| 2026-04-15 10:52 | 51.63010 | 0.62538 | 38108 ft | 394 kts | 276° |
| 2026-04-15 10:52 | 51.63292 | 0.54590 | 38110 ft | 392 kts | 276° |
| 2026-04-15 10:53 | 51.63600 | 0.45850 | 38101 ft | 391 kts | 276° |
| 2026-04-15 10:53 | 51.63895 | 0.37115 | 38099 ft | 390 kts | 276° |
| 2026-04-15 10:54 | 51.64180 | 0.28420 | 38078 ft | 389 kts | 276° |
| 2026-04-15 10:54 | 51.64456 | 0.19731 | 38083 ft | 388 kts | 276° |
| 2026-04-15 10:55 | 51.64163 | 0.11043 | 38075 ft | 393 kts | 264° |
| 2026-04-15 10:55 | 51.63231 | 0.02440 | 38076 ft | 392 kts | 265° |
| 2026-04-15 10:56 | 51.62306 | -0.06198 | 38074 ft | 391 kts | 265° |
| 2026-04-15 10:56 | 51.61885 | -0.14810 | 37995 ft | 383 kts | 279° |
| 2026-04-15 10:57 | 51.62424 | -0.23315 | 37986 ft | 382 kts | 279° |
| 2026-04-15 10:57 | 51.63193 | -0.36063 | 38068 ft | 382 kts | 278° |
| 2026-04-15 10:58 | 51.63698 | -0.44560 | 38070 ft | 381 kts | 279° |
| 2026-04-15 10:58 | 51.64199 | -0.53051 | 38068 ft | 381 kts | 278° |
| 2026-04-15 10:59 | 51.64693 | -0.61533 | 38061 ft | 380 kts | 279° |
| 2026-04-15 10:59 | 51.65187 | -0.70016 | 38057 ft | 380 kts | 279° |
| 2026-04-15 11:00 | 51.65677 | -0.78487 | 38011 ft | 380 kts | 278° |
| 2026-04-15 11:00 | 51.66158 | -0.86952 | 38008 ft | 380 kts | 279° |
| 2026-04-15 11:01 | 51.66625 | -0.95413 | 38012 ft | 379 kts | 279° |
| 2026-04-15 11:01 | 51.67083 | -1.03825 | 38008 ft | 379 kts | 279° |
| 2026-04-15 11:02 | 51.67546 | -1.12298 | 38011 ft | 380 kts | 279° |
| 2026-04-15 11:02 | 51.67994 | -1.20769 | 38009 ft | 380 kts | 278° |
| 2026-04-15 11:03 | 51.68440 | -1.29255 | 38013 ft | 380 kts | 278° |
| 2026-04-15 11:03 | 51.68882 | -1.37729 | 38015 ft | 380 kts | 278° |
| 2026-04-15 11:04 | 51.69319 | -1.46198 | 38018 ft | 379 kts | 278° |
| 2026-04-15 11:04 | 51.69749 | -1.54670 | 38017 ft | 379 kts | 278° |
| 2026-04-15 11:05 | 51.70162 | -1.63138 | 38020 ft | 379 kts | 278° |
| 2026-04-15 11:05 | 51.70589 | -1.71596 | 38015 ft | 378 kts | 279° |
| 2026-04-15 11:06 | 51.71191 | -1.80002 | 38020 ft | 377 kts | 280° |
| 2026-04-15 11:06 | 51.71852 | -1.88391 | 38019 ft | 377 kts | 280° |
| 2026-04-15 11:07 | 51.72475 | -1.96772 | 38017 ft | 376 kts | 279° |
| 2026-04-15 11:07 | 51.73057 | -2.05105 | 38014 ft | 376 kts | 279° |
| 2026-04-15 11:08 | 51.73636 | -2.13477 | 37999 ft | 376 kts | 279° |
| 2026-04-15 11:08 | 51.74212 | -2.21849 | 37994 ft | 375 kts | 279° |
| 2026-04-15 11:09 | 51.74786 | -2.30221 | 37994 ft | 375 kts | 279° |
| 2026-04-15 11:09 | 51.75352 | -2.38584 | 37989 ft | 375 kts | 279° |
| 2026-04-15 11:10 | 51.75913 | -2.46953 | 37984 ft | 375 kts | 278° |
| 2026-04-15 11:10 | 51.76468 | -2.55329 | 37966 ft | 376 kts | 278° |
| 2026-04-15 11:11 | 51.77017 | -2.63712 | 37969 ft | 375 kts | 278° |
| 2026-04-15 11:11 | 51.77559 | -2.72095 | 37963 ft | 376 kts | 278° |
| 2026-04-15 11:12 | 51.78095 | -2.80496 | 37968 ft | 376 kts | 278° |
| 2026-04-15 11:12 | 51.78625 | -2.88903 | 37965 ft | 376 kts | 277° |
| 2026-04-15 11:13 | 51.79152 | -2.97323 | 37970 ft | 376 kts | 277° |
| 2026-04-15 11:13 | 51.79672 | -3.05738 | 37964 ft | 377 kts | 277° |
| 2026-04-15 11:14 | 51.80182 | -3.14121 | 37969 ft | 378 kts | 277° |
| 2026-04-15 11:14 | 51.80697 | -3.22559 | 37966 ft | 378 kts | 277° |
| 2026-04-15 11:15 | 51.81204 | -3.31018 | 37960 ft | 378 kts | 276° |
| 2026-04-15 11:15 | 51.81695 | -3.39480 | 37952 ft | 379 kts | 276° |
| 2026-04-15 11:16 | 51.82184 | -3.47953 | 37951 ft | 379 kts | 276° |
| 2026-04-15 11:16 | 51.82850 | -3.56394 | 37943 ft | 379 kts | 282° |
| 2026-04-15 11:17 | 51.83947 | -3.64732 | 37945 ft | 379 kts | 281° |
| 2026-04-15 11:17 | 51.85030 | -3.73086 | 37943 ft | 380 kts | 281° |
| 2026-04-15 11:18 | 51.86105 | -3.81458 | 37942 ft | 380 kts | 281° |
| 2026-04-15 11:18 | 51.87173 | -3.89842 | 37944 ft | 381 kts | 281° |
| 2026-04-15 11:19 | 51.88203 | -3.98240 | 37934 ft | 380 kts | 276° |
| 2026-04-15 11:19 | 51.88577 | -4.06776 | 37927 ft | 381 kts | 273° |
| 2026-04-15 11:20 | 51.88916 | -4.15329 | 37925 ft | 381 kts | 273° |
| 2026-04-15 11:20 | 51.89250 | -4.23890 | 37918 ft | 381 kts | 273° |
| 2026-04-15 11:21 | 51.89579 | -4.32451 | 37926 ft | 381 kts | 272° |
| 2026-04-15 11:21 | 51.89849 | -4.39577 | 37914 ft | 381 kts | 272° |
| 2026-04-15 11:22 | 51.90218 | -4.49537 | 37913 ft | 382 kts | 272° |
| 2026-04-15 11:22 | 51.90529 | -4.58125 | 37903 ft | 382 kts | 272° |
| 2026-04-15 11:23 | 51.90785 | -4.65328 | 37908 ft | 382 kts | 272° |
| 2026-04-15 11:23 | 51.91078 | -4.73925 | 37901 ft | 383 kts | 272° |
| 2026-04-15 11:24 | 51.91373 | -4.82470 | 37899 ft | 383 kts | 271° |
| 2026-04-15 11:24 | 51.91667 | -4.91112 | 38104 ft | 390 kts | 265° |
| 2026-04-15 11:25 | 51.91804 | -4.95555 | 37918 ft | 401 kts | 265° |
| 2026-04-15 11:25 | 51.91940 | -5.00123 | 37864 ft | 409 kts | 265° |
| 2026-04-15 11:25 | 51.92229 | -5.09467 | 37862 ft | 420 kts | 265° |
| 2026-04-15 11:26 | 51.92538 | -5.18948 | 37857 ft | 423 kts | 265° |
| 2026-04-15 11:26 | 51.92691 | -5.23719 | 37605 ft | 423 kts | 265° |
| 2026-04-15 11:26 | 51.92841 | -5.28474 | 37348 ft | 423 kts | 265° |
| 2026-04-15 11:27 | 51.92986 | -5.33230 | 37093 ft | 423 kts | 265° |
| 2026-04-15 11:27 | 51.93124 | -5.37981 | 36842 ft | 422 kts | 265° |
| 2026-04-15 11:27 | 51.93259 | -5.42741 | 36590 ft | 422 kts | 265° |
| 2026-04-15 11:27 | 51.93393 | -5.47492 | 36349 ft | 422 kts | 265° |
| 2026-04-15 11:28 | 51.93523 | -5.52236 | 36105 ft | 422 kts | 265° |
| 2026-04-15 11:28 | 51.93651 | -5.56993 | 35864 ft | 422 kts | 265° |
| 2026-04-15 11:28 | 51.93780 | -5.61733 | 35624 ft | 421 kts | 265° |
| 2026-04-15 11:28 | 51.93908 | -5.66470 | 35389 ft | 419 kts | 264° |
| 2026-04-15 11:29 | 51.94032 | -5.71181 | 35157 ft | 417 kts | 264° |
| 2026-04-15 11:29 | 51.94153 | -5.75870 | 34925 ft | 415 kts | 264° |
| 2026-04-15 11:29 | 51.94268 | -5.80472 | 34696 ft | 413 kts | 264° |
| 2026-04-15 11:29 | 51.94385 | -5.85117 | 34467 ft | 411 kts | 264° |
| 2026-04-15 11:30 | 51.94501 | -5.89734 | 34242 ft | 409 kts | 264° |
| 2026-04-15 11:30 | 51.94616 | -5.94333 | 34016 ft | 408 kts | 264° |
| 2026-04-15 11:30 | 51.94728 | -5.98915 | 33790 ft | 406 kts | 264° |
| 2026-04-15 11:30 | 51.94835 | -6.03467 | 33527 ft | 404 kts | 264° |
| 2026-04-15 11:31 | 51.94940 | -6.08017 | 33264 ft | 403 kts | 264° |
| 2026-04-15 11:31 | 51.95042 | -6.12538 | 33000 ft | 401 kts | 264° |
| 2026-04-15 11:31 | 51.95142 | -6.17052 | 32746 ft | 400 kts | 264° |
| 2026-04-15 11:31 | 51.95238 | -6.21552 | 32491 ft | 399 kts | 264° |
| 2026-04-15 11:32 | 51.95205 | -6.25996 | 32232 ft | 391 kts | 258° |
| 2026-04-15 11:32 | 51.95019 | -6.30394 | 31982 ft | 390 kts | 258° |
| 2026-04-15 11:32 | 51.94839 | -6.34770 | 31734 ft | 389 kts | 258° |
| 2026-04-15 11:32 | 51.94661 | -6.39140 | 31492 ft | 387 kts | 258° |
| 2026-04-15 11:33 | 51.94487 | -6.43460 | 31086 ft | 383 kts | 258° |
| 2026-04-15 11:33 | 51.94311 | -6.47763 | 30615 ft | 381 kts | 257° |
| 2026-04-15 11:33 | 51.94133 | -6.52032 | 30158 ft | 379 kts | 257° |
| 2026-04-15 11:33 | 51.93952 | -6.56278 | 29666 ft | 377 kts | 257° |
| 2026-04-15 11:34 | 51.93770 | -6.60498 | 29209 ft | 373 kts | 257° |
| 2026-04-15 11:34 | 51.93588 | -6.64681 | 28775 ft | 369 kts | 257° |
| 2026-04-15 11:34 | 51.93407 | -6.68806 | 28358 ft | 366 kts | 257° |
| 2026-04-15 11:34 | 51.93226 | -6.72902 | 27936 ft | 362 kts | 257° |
| 2026-04-15 11:35 | 51.93050 | -6.76898 | 27518 ft | 359 kts | 258° |
| 2026-04-15 11:35 | 51.92872 | -6.80920 | 27105 ft | 356 kts | 258° |
| 2026-04-15 11:35 | 51.92692 | -6.84899 | 26686 ft | 353 kts | 258° |
| 2026-04-15 11:35 | 51.92512 | -6.88852 | 26258 ft | 350 kts | 258° |
| 2026-04-15 11:36 | 51.92331 | -6.92765 | 25833 ft | 347 kts | 258° |
| 2026-04-15 11:36 | 51.92151 | -6.96651 | 25392 ft | 345 kts | 258° |
| 2026-04-15 11:36 | 51.91971 | -7.00515 | 24949 ft | 343 kts | 258° |
| 2026-04-15 11:36 | 51.91791 | -7.04355 | 24501 ft | 341 kts | 258° |
| 2026-04-15 11:37 | 51.91611 | -7.08170 | 24045 ft | 339 kts | 259° |
| 2026-04-15 11:37 | 51.91431 | -7.11974 | 23593 ft | 337 kts | 259° |
| 2026-04-15 11:37 | 51.91251 | -7.15750 | 23096 ft | 336 kts | 259° |
| 2026-04-15 11:37 | 51.91071 | -7.19502 | 22624 ft | 332 kts | 259° |
| 2026-04-15 11:38 | 51.90893 | -7.23214 | 22188 ft | 328 kts | 259° |
| 2026-04-15 11:38 | 51.90715 | -7.26881 | 21753 ft | 325 kts | 259° |
| 2026-04-15 11:38 | 51.90536 | -7.30503 | 21330 ft | 322 kts | 259° |
| 2026-04-15 11:38 | 51.90355 | -7.34096 | 20912 ft | 319 kts | 259° |
| 2026-04-15 11:39 | 51.90174 | -7.37658 | 20503 ft | 316 kts | 259° |
| 2026-04-15 11:39 | 51.89995 | -7.41193 | 20089 ft | 313 kts | 259° |
| 2026-04-15 11:39 | 51.89820 | -7.44692 | 19685 ft | 311 kts | 259° |
| 2026-04-15 11:39 | 51.89647 | -7.48177 | 19281 ft | 309 kts | 259° |
| 2026-04-15 11:40 | 51.89471 | -7.51641 | 18878 ft | 308 kts | 259° |
| 2026-04-15 11:40 | 51.89293 | -7.55086 | 18482 ft | 307 kts | 259° |
| 2026-04-15 11:40 | 51.89117 | -7.58511 | 18090 ft | 305 kts | 259° |
| 2026-04-15 11:40 | 51.88943 | -7.61889 | 17666 ft | 304 kts | 259° |
| 2026-04-15 11:41 | 51.88763 | -7.65328 | 17268 ft | 301 kts | 259° |
| 2026-04-15 11:41 | 51.88587 | -7.68648 | 16894 ft | 299 kts | 259° |
| 2026-04-15 11:41 | 51.88408 | -7.71989 | 16508 ft | 297 kts | 259° |
| 2026-04-15 11:41 | 51.88231 | -7.75305 | 16140 ft | 295 kts | 259° |
| 2026-04-15 11:42 | 51.88061 | -7.78609 | 15768 ft | 294 kts | 260° |
| 2026-04-15 11:42 | 51.88189 | -7.81941 | 15394 ft | 301 kts | 275° |
| 2026-04-15 11:42 | 51.88861 | -7.85187 | 15012 ft | 310 kts | 290° |
| 2026-04-15 11:42 | 51.89884 | -7.88274 | 14619 ft | 311 kts | 291° |